sensor_id;sensor_type;location;lat;lon;timestamp;P1;durP1;ratioP1;P2;durP2;ratioP2
56425;SDS011;42330;43.620;3.856;2022-11-02T00:00:41;4.65;;;1.20;;
56425;SDS011;42330;43.620;3.856;2022-11-02T00:03:07;4.88;;;1.35;;
56425;SDS011;42330;43.620;3.856;2022-11-02T00:05:33;2.75;;;1.20;;
56425;SDS011;42330;43.620;3.856;2022-11-02T00:07:59;3.80;;;1.27;;
56425;SDS011;42330;43.620;3.856;2022-11-02T00:10:25;3.72;;;1.05;;
56425;SDS011;42330;43.620;3.856;2022-11-02T00:12:51;3.80;;;1.10;;
56425;SDS011;42330;43.620;3.856;2022-11-02T00:15:17;5.38;;;0.95;;
56425;SDS011;42330;43.620;3.856;2022-11-02T00:17:46;3.03;;;0.98;;
56425;SDS011;42330;43.620;3.856;2022-11-02T00:20:15;4.95;;;1.08;;
56425;SDS011;42330;43.620;3.856;2022-11-02T00:22:43;4.25;;;1.60;;
56425;SDS011;42330;43.620;3.856;2022-11-02T00:25:12;4.35;;;1.35;;
56425;SDS011;42330;43.620;3.856;2022-11-02T00:27:40;3.20;;;1.10;;
56425;SDS011;42330;43.620;3.856;2022-11-02T00:30:07;4.95;;;1.17;;
56425;SDS011;42330;43.620;3.856;2022-11-02T00:32:33;3.13;;;1.30;;
56425;SDS011;42330;43.620;3.856;2022-11-02T00:34:59;5.70;;;1.50;;
56425;SDS011;42330;43.620;3.856;2022-11-02T00:37:24;5.72;;;1.60;;
56425;SDS011;42330;43.620;3.856;2022-11-02T00:39:50;3.90;;;1.30;;
56425;SDS011;42330;43.620;3.856;2022-11-02T00:42:16;5.20;;;1.35;;
56425;SDS011;42330;43.620;3.856;2022-11-02T00:44:41;5.07;;;1.20;;
56425;SDS011;42330;43.620;3.856;2022-11-02T00:47:07;2.65;;;1.13;;
56425;SDS011;42330;43.620;3.856;2022-11-02T00:49:33;3.53;;;1.20;;
56425;SDS011;42330;43.620;3.856;2022-11-02T00:51:58;2.92;;;1.02;;
56425;SDS011;42330;43.620;3.856;2022-11-02T00:54:24;3.13;;;1.00;;
56425;SDS011;42330;43.620;3.856;2022-11-02T00:56:50;5.40;;;1.23;;
56425;SDS011;42330;43.620;3.856;2022-11-02T00:59:15;3.95;;;1.42;;
56425;SDS011;42330;43.620;3.856;2022-11-02T01:01:41;4.18;;;1.30;;
56425;SDS011;42330;43.620;3.856;2022-11-02T01:04:12;2.30;;;1.05;;
56425;SDS011;42330;43.620;3.856;2022-11-02T01:06:38;3.03;;;1.17;;
56425;SDS011;42330;43.620;3.856;2022-11-02T01:09:05;3.42;;;1.27;;
56425;SDS011;42330;43.620;3.856;2022-11-02T01:11:31;5.05;;;1.15;;
56425;SDS011;42330;43.620;3.856;2022-11-02T01:13:56;6.10;;;1.27;;
56425;SDS011;42330;43.620;3.856;2022-11-02T01:16:22;5.25;;;1.08;;
56425;SDS011;42330;43.620;3.856;2022-11-02T01:18:55;2.92;;;1.00;;
56425;SDS011;42330;43.620;3.856;2022-11-02T01:21:21;3.60;;;1.20;;
56425;SDS011;42330;43.620;3.856;2022-11-02T01:23:46;4.50;;;1.48;;
56425;SDS011;42330;43.620;3.856;2022-11-02T01:26:12;4.85;;;1.10;;
56425;SDS011;42330;43.620;3.856;2022-11-02T01:28:39;2.85;;;1.17;;
56425;SDS011;42330;43.620;3.856;2022-11-02T01:31:05;4.88;;;1.02;;
56425;SDS011;42330;43.620;3.856;2022-11-02T01:33:32;3.00;;;1.00;;
56425;SDS011;42330;43.620;3.856;2022-11-02T01:35:57;3.45;;;1.20;;
56425;SDS011;42330;43.620;3.856;2022-11-02T01:38:26;2.20;;;1.00;;
56425;SDS011;42330;43.620;3.856;2022-11-02T01:40:51;2.40;;;1.00;;
56425;SDS011;42330;43.620;3.856;2022-11-02T01:43:18;6.47;;;1.30;;
56425;SDS011;42330;43.620;3.856;2022-11-02T01:45:53;2.60;;;1.00;;
56425;SDS011;42330;43.620;3.856;2022-11-02T01:48:21;2.38;;;0.95;;
56425;SDS011;42330;43.620;3.856;2022-11-02T01:50:58;3.17;;;1.05;;
56425;SDS011;42330;43.620;3.856;2022-11-02T01:53:28;2.58;;;1.00;;
56425;SDS011;42330;43.620;3.856;2022-11-02T01:55:55;2.45;;;1.00;;
56425;SDS011;42330;43.620;3.856;2022-11-02T01:58:22;2.85;;;0.90;;
56425;SDS011;42330;43.620;3.856;2022-11-02T02:00:48;4.63;;;1.25;;
56425;SDS011;42330;43.620;3.856;2022-11-02T02:03:15;6.47;;;1.20;;
56425;SDS011;42330;43.620;3.856;2022-11-02T02:05:46;3.08;;;1.10;;
56425;SDS011;42330;43.620;3.856;2022-11-02T02:08:17;3.35;;;1.25;;
56425;SDS011;42330;43.620;3.856;2022-11-02T02:10:44;8.10;;;1.50;;
56425;SDS011;42330;43.620;3.856;2022-11-02T02:13:10;9.90;;;1.80;;
56425;SDS011;42330;43.620;3.856;2022-11-02T02:18:13;3.55;;;1.13;;
56425;SDS011;42330;43.620;3.856;2022-11-02T02:28:42;2.30;;;1.05;;
56425;SDS011;42330;43.620;3.856;2022-11-02T02:31:36;4.55;;;1.20;;
56425;SDS011;42330;43.620;3.856;2022-11-02T02:37:35;2.63;;;1.10;;
56425;SDS011;42330;43.620;3.856;2022-11-02T02:40:12;2.97;;;1.20;;
56425;SDS011;42330;43.620;3.856;2022-11-02T02:42:47;2.90;;;1.08;;
56425;SDS011;42330;43.620;3.856;2022-11-02T02:45:41;3.72;;;1.30;;
56425;SDS011;42330;43.620;3.856;2022-11-02T02:48:11;5.32;;;1.23;;
56425;SDS011;42330;43.620;3.856;2022-11-02T02:50:46;3.85;;;1.23;;
56425;SDS011;42330;43.620;3.856;2022-11-02T02:53:19;5.45;;;1.23;;
56425;SDS011;42330;43.620;3.856;2022-11-02T02:55:51;3.75;;;1.20;;
56425;SDS011;42330;43.620;3.856;2022-11-02T02:58:18;2.92;;;1.10;;
56425;SDS011;42330;43.620;3.856;2022-11-02T03:00:48;2.30;;;1.00;;
56425;SDS011;42330;43.620;3.856;2022-11-02T03:03:17;4.47;;;1.10;;
56425;SDS011;42330;43.620;3.856;2022-11-02T03:05:54;5.28;;;1.20;;
56425;SDS011;42330;43.620;3.856;2022-11-02T03:08:23;3.58;;;1.20;;
56425;SDS011;42330;43.620;3.856;2022-11-02T03:11:01;3.38;;;1.42;;
56425;SDS011;42330;43.620;3.856;2022-11-02T03:16:16;5.22;;;1.33;;
56425;SDS011;42330;43.620;3.856;2022-11-02T03:19:09;4.43;;;1.30;;
56425;SDS011;42330;43.620;3.856;2022-11-02T03:21:54;3.35;;;1.30;;
56425;SDS011;42330;43.620;3.856;2022-11-02T03:24:34;3.60;;;1.30;;
56425;SDS011;42330;43.620;3.856;2022-11-02T03:30:08;3.50;;;1.30;;
56425;SDS011;42330;43.620;3.856;2022-11-02T03:32:40;4.20;;;1.45;;
56425;SDS011;42330;43.620;3.856;2022-11-02T03:35:14;3.42;;;1.40;;
56425;SDS011;42330;43.620;3.856;2022-11-02T03:37:54;5.10;;;1.50;;
56425;SDS011;42330;43.620;3.856;2022-11-02T03:40:34;4.35;;;1.50;;
56425;SDS011;42330;43.620;3.856;2022-11-02T03:43:06;5.88;;;1.50;;
56425;SDS011;42330;43.620;3.856;2022-11-02T03:45:34;3.55;;;1.63;;
56425;SDS011;42330;43.620;3.856;2022-11-02T03:48:04;3.22;;;1.50;;
56425;SDS011;42330;43.620;3.856;2022-11-02T03:50:33;3.88;;;1.35;;
56425;SDS011;42330;43.620;3.856;2022-11-02T03:55:51;4.13;;;1.27;;
56425;SDS011;42330;43.620;3.856;2022-11-02T03:58:19;3.85;;;1.23;;
56425;SDS011;42330;43.620;3.856;2022-11-02T04:00:46;2.67;;;1.33;;
56425;SDS011;42330;43.620;3.856;2022-11-02T04:03:16;3.78;;;1.40;;
56425;SDS011;42330;43.620;3.856;2022-11-02T04:05:45;4.80;;;1.50;;
56425;SDS011;42330;43.620;3.856;2022-11-02T04:08:11;7.03;;;1.60;;
56425;SDS011;42330;43.620;3.856;2022-11-02T04:10:48;6.65;;;1.70;;
56425;SDS011;42330;43.620;3.856;2022-11-02T04:13:33;3.58;;;1.33;;
56425;SDS011;42330;43.620;3.856;2022-11-02T04:16:19;4.78;;;1.42;;
56425;SDS011;42330;43.620;3.856;2022-11-02T04:18:45;5.20;;;1.00;;
56425;SDS011;42330;43.620;3.856;2022-11-02T04:21:29;3.90;;;1.30;;
56425;SDS011;42330;43.620;3.856;2022-11-02T04:23:55;3.15;;;1.02;;
56425;SDS011;42330;43.620;3.856;2022-11-02T04:26:39;3.20;;;1.10;;
56425;SDS011;42330;43.620;3.856;2022-11-02T04:29:05;2.33;;;1.10;;
56425;SDS011;42330;43.620;3.856;2022-11-02T04:31:31;4.22;;;1.10;;
56425;SDS011;42330;43.620;3.856;2022-11-02T04:33:57;4.10;;;1.15;;
56425;SDS011;42330;43.620;3.856;2022-11-02T04:36:23;3.70;;;1.10;;
56425;SDS011;42330;43.620;3.856;2022-11-02T04:38:49;4.65;;;1.10;;
56425;SDS011;42330;43.620;3.856;2022-11-02T04:41:16;3.03;;;0.93;;
56425;SDS011;42330;43.620;3.856;2022-11-02T04:44:02;4.07;;;1.20;;
56425;SDS011;42330;43.620;3.856;2022-11-02T04:46:29;2.75;;;1.15;;
56425;SDS011;42330;43.620;3.856;2022-11-02T04:48:56;3.47;;;1.30;;
56425;SDS011;42330;43.620;3.856;2022-11-02T04:51:22;4.75;;;1.38;;
56425;SDS011;42330;43.620;3.856;2022-11-02T04:53:49;4.82;;;1.23;;
56425;SDS011;42330;43.620;3.856;2022-11-02T04:56:16;3.13;;;1.30;;
56425;SDS011;42330;43.620;3.856;2022-11-02T04:58:42;3.13;;;1.42;;
56425;SDS011;42330;43.620;3.856;2022-11-02T05:01:10;2.78;;;1.00;;
56425;SDS011;42330;43.620;3.856;2022-11-02T05:03:38;4.05;;;1.40;;
56425;SDS011;42330;43.620;3.856;2022-11-02T05:06:05;6.10;;;1.30;;
56425;SDS011;42330;43.620;3.856;2022-11-02T05:08:31;8.52;;;1.70;;
56425;SDS011;42330;43.620;3.856;2022-11-02T05:10:57;6.20;;;1.50;;
56425;SDS011;42330;43.620;3.856;2022-11-02T05:13:23;3.40;;;1.10;;
56425;SDS011;42330;43.620;3.856;2022-11-02T05:15:51;5.40;;;1.60;;
56425;SDS011;42330;43.620;3.856;2022-11-02T05:18:20;5.20;;;1.13;;
56425;SDS011;42330;43.620;3.856;2022-11-02T05:20:52;2.50;;;1.10;;
56425;SDS011;42330;43.620;3.856;2022-11-02T05:23:19;4.20;;;1.33;;
56425;SDS011;42330;43.620;3.856;2022-11-02T05:28:21;2.47;;;1.10;;
56425;SDS011;42330;43.620;3.856;2022-11-02T05:30:48;3.72;;;1.15;;
56425;SDS011;42330;43.620;3.856;2022-11-02T05:33:14;4.50;;;1.30;;
56425;SDS011;42330;43.620;3.856;2022-11-02T05:35:39;3.33;;;1.23;;
56425;SDS011;42330;43.620;3.856;2022-11-02T05:38:05;5.15;;;1.40;;
56425;SDS011;42330;43.620;3.856;2022-11-02T05:40:31;4.82;;;1.35;;
56425;SDS011;42330;43.620;3.856;2022-11-02T05:43:01;4.60;;;1.50;;
56425;SDS011;42330;43.620;3.856;2022-11-02T05:45:27;2.53;;;1.10;;
56425;SDS011;42330;43.620;3.856;2022-11-02T05:47:53;5.28;;;1.05;;
56425;SDS011;42330;43.620;3.856;2022-11-02T05:50:19;4.90;;;1.33;;
56425;SDS011;42330;43.620;3.856;2022-11-02T05:52:45;2.80;;;1.20;;
56425;SDS011;42330;43.620;3.856;2022-11-02T05:55:11;5.07;;;1.45;;
56425;SDS011;42330;43.620;3.856;2022-11-02T05:57:37;4.10;;;1.33;;
56425;SDS011;42330;43.620;3.856;2022-11-02T06:00:04;2.83;;;1.10;;
56425;SDS011;42330;43.620;3.856;2022-11-02T06:02:32;3.33;;;1.02;;
56425;SDS011;42330;43.620;3.856;2022-11-02T06:04:57;4.90;;;1.10;;
56425;SDS011;42330;43.620;3.856;2022-11-02T06:07:23;3.38;;;1.17;;
56425;SDS011;42330;43.620;3.856;2022-11-02T06:09:49;5.30;;;1.08;;
56425;SDS011;42330;43.620;3.856;2022-11-02T06:12:14;2.65;;;0.93;;
56425;SDS011;42330;43.620;3.856;2022-11-02T06:14:40;5.00;;;1.30;;
56425;SDS011;42330;43.620;3.856;2022-11-02T06:17:05;3.10;;;1.10;;
56425;SDS011;42330;43.620;3.856;2022-11-02T06:19:31;5.38;;;1.02;;
56425;SDS011;42330;43.620;3.856;2022-11-02T06:21:57;6.70;;;1.27;;
56425;SDS011;42330;43.620;3.856;2022-11-02T06:24:22;4.43;;;1.25;;
56425;SDS011;42330;43.620;3.856;2022-11-02T06:26:48;5.43;;;1.27;;
56425;SDS011;42330;43.620;3.856;2022-11-02T06:29:13;3.78;;;1.00;;
56425;SDS011;42330;43.620;3.856;2022-11-02T06:31:39;5.55;;;1.25;;
56425;SDS011;42330;43.620;3.856;2022-11-02T06:34:05;3.65;;;1.00;;
56425;SDS011;42330;43.620;3.856;2022-11-02T06:36:31;3.75;;;1.40;;
56425;SDS011;42330;43.620;3.856;2022-11-02T06:38:56;7.50;;;1.95;;
56425;SDS011;42330;43.620;3.856;2022-11-02T06:41:22;3.58;;;1.20;;
56425;SDS011;42330;43.620;3.856;2022-11-02T06:43:47;7.57;;;1.55;;
56425;SDS011;42330;43.620;3.856;2022-11-02T06:46:13;4.03;;;1.13;;
56425;SDS011;42330;43.620;3.856;2022-11-02T06:48:39;3.20;;;1.10;;
56425;SDS011;42330;43.620;3.856;2022-11-02T06:51:05;3.38;;;1.38;;
56425;SDS011;42330;43.620;3.856;2022-11-02T06:53:31;3.97;;;1.42;;
56425;SDS011;42330;43.620;3.856;2022-11-02T06:55:58;4.57;;;1.08;;
56425;SDS011;42330;43.620;3.856;2022-11-02T06:58:24;4.65;;;1.20;;
56425;SDS011;42330;43.620;3.856;2022-11-02T07:00:50;7.47;;;1.30;;
56425;SDS011;42330;43.620;3.856;2022-11-02T07:03:21;4.22;;;1.50;;
56425;SDS011;42330;43.620;3.856;2022-11-02T07:05:50;3.28;;;1.17;;
56425;SDS011;42330;43.620;3.856;2022-11-02T07:08:17;4.22;;;1.20;;
56425;SDS011;42330;43.620;3.856;2022-11-02T07:10:44;6.13;;;1.00;;
56425;SDS011;42330;43.620;3.856;2022-11-02T07:13:10;5.05;;;1.10;;
56425;SDS011;42330;43.620;3.856;2022-11-02T07:15:36;4.65;;;1.25;;
56425;SDS011;42330;43.620;3.856;2022-11-02T07:18:01;4.93;;;1.15;;
56425;SDS011;42330;43.620;3.856;2022-11-02T07:20:28;6.03;;;1.10;;
56425;SDS011;42330;43.620;3.856;2022-11-02T07:22:58;5.85;;;1.27;;
56425;SDS011;42330;43.620;3.856;2022-11-02T07:25:25;4.28;;;1.42;;
56425;SDS011;42330;43.620;3.856;2022-11-02T07:27:52;6.32;;;1.98;;
56425;SDS011;42330;43.620;3.856;2022-11-02T07:30:18;7.40;;;2.10;;
56425;SDS011;42330;43.620;3.856;2022-11-02T07:32:44;8.77;;;1.70;;
56425;SDS011;42330;43.620;3.856;2022-11-02T07:35:10;13.45;;;1.92;;
56425;SDS011;42330;43.620;3.856;2022-11-02T07:37:38;5.65;;;1.60;;
56425;SDS011;42330;43.620;3.856;2022-11-02T07:40:05;5.85;;;1.55;;
56425;SDS011;42330;43.620;3.856;2022-11-02T07:42:32;5.55;;;1.55;;
56425;SDS011;42330;43.620;3.856;2022-11-02T07:44:57;3.38;;;1.35;;
56425;SDS011;42330;43.620;3.856;2022-11-02T07:47:23;4.10;;;1.70;;
56425;SDS011;42330;43.620;3.856;2022-11-02T07:49:49;4.57;;;1.30;;
56425;SDS011;42330;43.620;3.856;2022-11-02T07:52:15;4.00;;;1.50;;
56425;SDS011;42330;43.620;3.856;2022-11-02T07:54:40;6.53;;;1.58;;
56425;SDS011;42330;43.620;3.856;2022-11-02T07:57:06;2.88;;;1.20;;
56425;SDS011;42330;43.620;3.856;2022-11-02T07:59:31;4.43;;;1.30;;
56425;SDS011;42330;43.620;3.856;2022-11-02T08:01:57;5.70;;;1.70;;
56425;SDS011;42330;43.620;3.856;2022-11-02T08:04:23;7.00;;;1.70;;
56425;SDS011;42330;43.620;3.856;2022-11-02T08:06:48;5.65;;;1.73;;
56425;SDS011;42330;43.620;3.856;2022-11-02T08:09:14;6.30;;;1.52;;
56425;SDS011;42330;43.620;3.856;2022-11-02T08:11:40;7.55;;;1.52;;
56425;SDS011;42330;43.620;3.856;2022-11-02T08:14:06;4.78;;;1.50;;
56425;SDS011;42330;43.620;3.856;2022-11-02T08:16:32;4.10;;;1.40;;
56425;SDS011;42330;43.620;3.856;2022-11-02T08:18:58;8.50;;;1.70;;
56425;SDS011;42330;43.620;3.856;2022-11-02T08:21:24;8.85;;;1.90;;
56425;SDS011;42330;43.620;3.856;2022-11-02T08:23:50;5.07;;;1.83;;
56425;SDS011;42330;43.620;3.856;2022-11-02T08:26:16;13.73;;;2.10;;
56425;SDS011;42330;43.620;3.856;2022-11-02T08:28:42;9.45;;;2.20;;
56425;SDS011;42330;43.620;3.856;2022-11-02T08:31:13;16.58;;;2.38;;
56425;SDS011;42330;43.620;3.856;2022-11-02T08:33:40;16.15;;;2.60;;
56425;SDS011;42330;43.620;3.856;2022-11-02T08:36:09;9.48;;;1.60;;
56425;SDS011;42330;43.620;3.856;2022-11-02T08:38:35;5.32;;;1.30;;
56425;SDS011;42330;43.620;3.856;2022-11-02T08:41:02;13.77;;;1.70;;
56425;SDS011;42330;43.620;3.856;2022-11-02T08:43:28;10.40;;;1.40;;
56425;SDS011;42330;43.620;3.856;2022-11-02T08:45:56;6.47;;;1.45;;
56425;SDS011;42330;43.620;3.856;2022-11-02T08:48:23;13.32;;;1.65;;
56425;SDS011;42330;43.620;3.856;2022-11-02T08:50:49;9.30;;;1.52;;
56425;SDS011;42330;43.620;3.856;2022-11-02T08:53:15;4.47;;;1.08;;
56425;SDS011;42330;43.620;3.856;2022-11-02T08:55:41;4.95;;;1.10;;
56425;SDS011;42330;43.620;3.856;2022-11-02T08:58:07;4.72;;;0.82;;
56425;SDS011;42330;43.620;3.856;2022-11-02T09:00:33;4.25;;;0.90;;
56425;SDS011;42330;43.620;3.856;2022-11-02T09:03:00;5.38;;;1.20;;
56425;SDS011;42330;43.620;3.856;2022-11-02T09:05:33;4.05;;;1.20;;
56425;SDS011;42330;43.620;3.856;2022-11-02T09:08:04;3.67;;;0.90;;
56425;SDS011;42330;43.620;3.856;2022-11-02T09:10:32;5.03;;;0.82;;
56425;SDS011;42330;43.620;3.856;2022-11-02T09:13:00;7.80;;;0.90;;
56425;SDS011;42330;43.620;3.856;2022-11-02T09:15:26;8.07;;;1.10;;
56425;SDS011;42330;43.620;3.856;2022-11-02T09:17:53;7.63;;;1.10;;
56425;SDS011;42330;43.620;3.856;2022-11-02T09:20:19;3.50;;;0.65;;
56425;SDS011;42330;43.620;3.856;2022-11-02T09:22:47;3.03;;;0.65;;
56425;SDS011;42330;43.620;3.856;2022-11-02T09:25:13;4.43;;;0.65;;
56425;SDS011;42330;43.620;3.856;2022-11-02T09:27:40;3.85;;;0.57;;
56425;SDS011;42330;43.620;3.856;2022-11-02T09:30:07;3.97;;;0.70;;
56425;SDS011;42330;43.620;3.856;2022-11-02T09:32:33;2.55;;;0.80;;
56425;SDS011;42330;43.620;3.856;2022-11-02T09:35:00;3.53;;;0.60;;
56425;SDS011;42330;43.620;3.856;2022-11-02T09:37:27;4.88;;;0.90;;
56425;SDS011;42330;43.620;3.856;2022-11-02T09:39:53;3.67;;;0.65;;
56425;SDS011;42330;43.620;3.856;2022-11-02T09:45:07;3.63;;;0.60;;
56425;SDS011;42330;43.620;3.856;2022-11-02T09:47:42;2.45;;;0.55;;
56425;SDS011;42330;43.620;3.856;2022-11-02T09:50:12;2.97;;;0.70;;
56425;SDS011;42330;43.620;3.856;2022-11-02T09:52:44;7.63;;;0.77;;
56425;SDS011;42330;43.620;3.856;2022-11-02T09:55:16;4.60;;;0.80;;
56425;SDS011;42330;43.620;3.856;2022-11-02T09:57:46;7.15;;;0.70;;
56425;SDS011;42330;43.620;3.856;2022-11-02T10:00:14;2.25;;;0.50;;
56425;SDS011;42330;43.620;3.856;2022-11-02T10:09:16;3.45;;;0.73;;
56425;SDS011;42330;43.620;3.856;2022-11-02T10:14:00;2.20;;;0.60;;
56425;SDS011;42330;43.620;3.856;2022-11-02T10:19:50;2.38;;;0.70;;
56425;SDS011;42330;43.620;3.856;2022-11-02T10:22:23;5.63;;;0.88;;
56425;SDS011;42330;43.620;3.856;2022-11-02T10:24:57;5.13;;;0.80;;
56425;SDS011;42330;43.620;3.856;2022-11-02T10:27:28;4.80;;;0.70;;
56425;SDS011;42330;43.620;3.856;2022-11-02T10:30:02;3.85;;;0.80;;
56425;SDS011;42330;43.620;3.856;2022-11-02T10:32:37;4.15;;;0.60;;
56425;SDS011;42330;43.620;3.856;2022-11-02T10:35:05;3.00;;;0.50;;
56425;SDS011;42330;43.620;3.856;2022-11-02T10:37:55;2.47;;;0.65;;
56425;SDS011;42330;43.620;3.856;2022-11-02T10:40:30;1.92;;;0.40;;
56425;SDS011;42330;43.620;3.856;2022-11-02T10:51:33;3.65;;;0.60;;
56425;SDS011;42330;43.620;3.856;2022-11-02T10:53:59;1.23;;;0.40;;
56425;SDS011;42330;43.620;3.856;2022-11-02T10:56:29;5.05;;;0.80;;
56425;SDS011;42330;43.620;3.856;2022-11-02T10:59:08;4.00;;;0.60;;
56425;SDS011;42330;43.620;3.856;2022-11-02T11:04:32;3.88;;;0.80;;
56425;SDS011;42330;43.620;3.856;2022-11-02T11:07:11;4.40;;;0.70;;
56425;SDS011;42330;43.620;3.856;2022-11-02T11:09:54;2.72;;;0.60;;
56425;SDS011;42330;43.620;3.856;2022-11-02T11:14:57;2.70;;;0.50;;
56425;SDS011;42330;43.620;3.856;2022-11-02T11:17:35;5.57;;;0.88;;
56425;SDS011;42330;43.620;3.856;2022-11-02T11:20:03;4.25;;;0.50;;
56425;SDS011;42330;43.620;3.856;2022-11-02T11:22:32;1.95;;;0.40;;
56425;SDS011;42330;43.620;3.856;2022-11-02T11:27:57;1.08;;;0.22;;
56425;SDS011;42330;43.620;3.856;2022-11-02T11:30:25;2.88;;;0.57;;
56425;SDS011;42330;43.620;3.856;2022-11-02T11:33:02;3.65;;;0.63;;
56425;SDS011;42330;43.620;3.856;2022-11-02T11:35:30;3.03;;;0.60;;
56425;SDS011;42330;43.620;3.856;2022-11-02T11:37:59;4.35;;;0.50;;
56425;SDS011;42330;43.620;3.856;2022-11-02T11:40:33;4.80;;;0.60;;
56425;SDS011;42330;43.620;3.856;2022-11-02T11:43:01;3.83;;;0.50;;
56425;SDS011;42330;43.620;3.856;2022-11-02T11:45:34;5.35;;;0.50;;
56425;SDS011;42330;43.620;3.856;2022-11-02T11:48:06;1.67;;;0.40;;
56425;SDS011;42330;43.620;3.856;2022-11-02T11:50:48;3.00;;;0.40;;
56425;SDS011;42330;43.620;3.856;2022-11-02T11:53:24;2.35;;;0.40;;
56425;SDS011;42330;43.620;3.856;2022-11-02T11:55:51;4.05;;;0.38;;
56425;SDS011;42330;43.620;3.856;2022-11-02T11:58:28;3.65;;;0.75;;
56425;SDS011;42330;43.620;3.856;2022-11-02T12:01:14;4.05;;;0.60;;
56425;SDS011;42330;43.620;3.856;2022-11-02T12:09:22;2.65;;;0.55;;
56425;SDS011;42330;43.620;3.856;2022-11-02T12:12:23;4.75;;;0.63;;
56425;SDS011;42330;43.620;3.856;2022-11-02T12:39:49;3.45;;;0.68;;
56425;SDS011;42330;43.620;3.856;2022-11-02T12:42:27;2.60;;;0.60;;
56425;SDS011;42330;43.620;3.856;2022-11-02T12:53:19;1.77;;;0.55;;
56425;SDS011;42330;43.620;3.856;2022-11-02T12:55:56;6.40;;;0.88;;
56425;SDS011;42330;43.620;3.856;2022-11-02T12:58:26;8.07;;;0.85;;
56425;SDS011;42330;43.620;3.856;2022-11-02T13:00:55;1.73;;;0.50;;
56425;SDS011;42330;43.620;3.856;2022-11-02T13:03:33;2.88;;;0.80;;
56425;SDS011;42330;43.620;3.856;2022-11-02T13:06:02;3.30;;;0.70;;
56425;SDS011;42330;43.620;3.856;2022-11-02T13:08:35;4.65;;;0.68;;
56425;SDS011;42330;43.620;3.856;2022-11-02T13:11:13;3.80;;;0.80;;
56425;SDS011;42330;43.620;3.856;2022-11-02T13:13:44;3.20;;;0.80;;
56425;SDS011;42330;43.620;3.856;2022-11-02T13:16:13;4.03;;;0.85;;
56425;SDS011;42330;43.620;3.856;2022-11-02T13:18:49;3.97;;;0.93;;
56425;SDS011;42330;43.620;3.856;2022-11-02T13:21:32;4.05;;;1.00;;
56425;SDS011;42330;43.620;3.856;2022-11-02T13:24:01;7.82;;;0.90;;
56425;SDS011;42330;43.620;3.856;2022-11-02T13:26:33;4.68;;;0.88;;
56425;SDS011;42330;43.620;3.856;2022-11-02T13:31:47;3.13;;;0.90;;
56425;SDS011;42330;43.620;3.856;2022-11-02T13:34:36;6.45;;;1.00;;
56425;SDS011;42330;43.620;3.856;2022-11-02T13:37:25;7.97;;;0.93;;
56425;SDS011;42330;43.620;3.856;2022-11-02T13:39:59;7.25;;;0.90;;
56425;SDS011;42330;43.620;3.856;2022-11-02T13:50:58;6.50;;;0.85;;
56425;SDS011;42330;43.620;3.856;2022-11-02T13:53:29;8.88;;;1.10;;
56425;SDS011;42330;43.620;3.856;2022-11-02T13:56:09;4.85;;;0.85;;
56425;SDS011;42330;43.620;3.856;2022-11-02T13:58:45;3.88;;;0.60;;
56425;SDS011;42330;43.620;3.856;2022-11-02T14:01:14;5.28;;;1.30;;
56425;SDS011;42330;43.620;3.856;2022-11-02T14:06:22;8.75;;;0.70;;
56425;SDS011;42330;43.620;3.856;2022-11-02T14:11:22;2.53;;;0.70;;
56425;SDS011;42330;43.620;3.856;2022-11-02T14:16:41;4.95;;;1.10;;
56425;SDS011;42330;43.620;3.856;2022-11-02T14:45:51;5.18;;;0.90;;
56425;SDS011;42330;43.620;3.856;2022-11-02T14:48:20;5.07;;;0.98;;
56425;SDS011;42330;43.620;3.856;2022-11-02T14:50:56;4.55;;;0.60;;
56425;SDS011;42330;43.620;3.856;2022-11-02T14:53:31;2.88;;;0.70;;
56425;SDS011;42330;43.620;3.856;2022-11-02T14:56:00;2.25;;;0.60;;
56425;SDS011;42330;43.620;3.856;2022-11-02T14:59:12;5.03;;;0.70;;
56425;SDS011;42330;43.620;3.856;2022-11-02T15:01:17;4.63;;;0.73;;
56425;SDS011;42330;43.620;3.856;2022-11-02T15:03:44;4.57;;;0.73;;
56425;SDS011;42330;43.620;3.856;2022-11-02T15:06:14;5.53;;;0.85;;
56425;SDS011;42330;43.620;3.856;2022-11-02T15:27:33;4.28;;;0.88;;
56425;SDS011;42330;43.620;3.856;2022-11-02T15:30:01;9.30;;;1.80;;
56425;SDS011;42330;43.620;3.856;2022-11-02T15:32:29;8.45;;;1.10;;
56425;SDS011;42330;43.620;3.856;2022-11-02T15:35:02;8.55;;;1.30;;
56425;SDS011;42330;43.620;3.856;2022-11-02T15:37:28;5.68;;;0.85;;
56425;SDS011;42330;43.620;3.856;2022-11-02T15:40:00;9.63;;;0.88;;
56425;SDS011;42330;43.620;3.856;2022-11-02T15:45:36;5.47;;;0.85;;
56425;SDS011;42330;43.620;3.856;2022-11-02T15:48:20;10.57;;;1.20;;
56425;SDS011;42330;43.620;3.856;2022-11-02T15:56:25;10.80;;;1.42;;
56425;SDS011;42330;43.620;3.856;2022-11-02T16:01:36;3.22;;;0.93;;
56425;SDS011;42330;43.620;3.856;2022-11-02T16:04:04;3.35;;;0.90;;
56425;SDS011;42330;43.620;3.856;2022-11-02T16:09:00;7.70;;;1.10;;
56425;SDS011;42330;43.620;3.856;2022-11-02T16:11:27;6.72;;;1.20;;
56425;SDS011;42330;43.620;3.856;2022-11-02T16:14:02;6.45;;;1.00;;
56425;SDS011;42330;43.620;3.856;2022-11-02T16:16:45;15.32;;;1.00;;
56425;SDS011;42330;43.620;3.856;2022-11-02T16:19:17;15.25;;;1.50;;
56425;SDS011;42330;43.620;3.856;2022-11-02T16:21:44;7.10;;;1.40;;
56425;SDS011;42330;43.620;3.856;2022-11-02T16:24:10;6.50;;;1.33;;
56425;SDS011;42330;43.620;3.856;2022-11-02T16:26:35;6.85;;;1.50;;
56425;SDS011;42330;43.620;3.856;2022-11-02T16:29:01;9.25;;;1.20;;
56425;SDS011;42330;43.620;3.856;2022-11-02T16:31:31;7.40;;;1.40;;
56425;SDS011;42330;43.620;3.856;2022-11-02T16:33:57;7.45;;;1.27;;
56425;SDS011;42330;43.620;3.856;2022-11-02T16:36:44;6.32;;;1.13;;
56425;SDS011;42330;43.620;3.856;2022-11-02T16:39:14;10.20;;;1.40;;
56425;SDS011;42330;43.620;3.856;2022-11-02T16:41:52;6.47;;;1.25;;
56425;SDS011;42330;43.620;3.856;2022-11-02T16:47:15;5.22;;;1.30;;
56425;SDS011;42330;43.620;3.856;2022-11-02T16:54:46;7.50;;;1.33;;
56425;SDS011;42330;43.620;3.856;2022-11-02T16:57:33;11.18;;;1.48;;
56425;SDS011;42330;43.620;3.856;2022-11-02T17:00:17;5.35;;;1.30;;
56425;SDS011;42330;43.620;3.856;2022-11-02T17:02:44;10.35;;;1.60;;
56425;SDS011;42330;43.620;3.856;2022-11-02T17:05:15;6.50;;;1.30;;
56425;SDS011;42330;43.620;3.856;2022-11-02T17:10:23;4.70;;;1.48;;
56425;SDS011;42330;43.620;3.856;2022-11-02T17:12:51;11.63;;;1.52;;
56425;SDS011;42330;43.620;3.856;2022-11-02T17:15:18;7.63;;;1.83;;
56425;SDS011;42330;43.620;3.856;2022-11-02T17:17:45;6.88;;;1.70;;
56425;SDS011;42330;43.620;3.856;2022-11-02T17:22:49;7.40;;;1.98;;
56425;SDS011;42330;43.620;3.856;2022-11-02T17:28:24;5.25;;;1.55;;
56425;SDS011;42330;43.620;3.856;2022-11-02T17:30:58;5.32;;;1.52;;
56425;SDS011;42330;43.620;3.856;2022-11-02T17:33:26;8.77;;;1.45;;
56425;SDS011;42330;43.620;3.856;2022-11-02T17:35:55;5.70;;;1.50;;
56425;SDS011;42330;43.620;3.856;2022-11-02T17:38:28;5.10;;;1.65;;
56425;SDS011;42330;43.620;3.856;2022-11-02T17:40:53;11.52;;;1.80;;
56425;SDS011;42330;43.620;3.856;2022-11-02T17:43:21;13.88;;;2.40;;
56425;SDS011;42330;43.620;3.856;2022-11-02T17:45:54;9.48;;;2.05;;
56425;SDS011;42330;43.620;3.856;2022-11-02T17:48:23;7.47;;;2.20;;
56425;SDS011;42330;43.620;3.856;2022-11-02T17:50:53;39.22;;;3.58;;
56425;SDS011;42330;43.620;3.856;2022-11-02T17:53:21;9.07;;;2.65;;
56425;SDS011;42330;43.620;3.856;2022-11-02T17:55:48;8.15;;;2.20;;
56425;SDS011;42330;43.620;3.856;2022-11-02T17:58:13;15.68;;;2.70;;
56425;SDS011;42330;43.620;3.856;2022-11-02T18:00:40;12.32;;;2.40;;
56425;SDS011;42330;43.620;3.856;2022-11-02T18:03:11;10.45;;;2.60;;
56425;SDS011;42330;43.620;3.856;2022-11-02T18:05:43;8.38;;;3.05;;
56425;SDS011;42330;43.620;3.856;2022-11-02T18:08:08;8.82;;;2.83;;
56425;SDS011;42330;43.620;3.856;2022-11-02T18:10:38;8.95;;;2.60;;
56425;SDS011;42330;43.620;3.856;2022-11-02T18:13:05;9.30;;;2.72;;